This demonstration page uses our WeatherBlox Daily Observations layout. Learn more.

Left ArrowRight Arrow

Hourly Observations for September 14, 2015

Temp ( °F °C ) Dew Point ( °F °C ) Humidity (%) Winds ( mph kmh ) Pressure ( in mb ) Visibility ( mi km ) Precip ( " mm )
12:51 am 00:51 Clear 76 24.4 53 11.7 45 45 NW 12 19 29.75 1007 10 16.0934 0 0
1:51 am 01:51 Clear 72 22.2 56 13.3 57 57 W 10 17 29.74 1007 10 16.0934 0 0
2:51 am 02:51 Clear 72 22.2 56 13.3 57 57 WNW 9 15 29.75 1007 10 16.0934 0 0
3:51 am 03:51 Clear 71 21.7 56 13.3 59 59 WNW 5 7 29.76 1008 10 16.0934 0 0
4:51 am 04:51 Clear 70 21.1 56 13.3 61 61 N 3 6 29.76 1008 10 16.0934 0 0
5:51 am 05:51 Clear 69 20.6 56 13.3 63 63 Calm 29.79 1009 10 16.0934 0 0
6:51 am 06:51 Sunny 71 21.7 56 13.3 59 59 E 5 7 29.8 1009 10 16.0934 0 0
7:51 am 07:51 Sunny 74 23.3 56 13.3 54 54 E 6 9 29.83 1010 10 16.0934 0 0
8:51 am 08:51 Sunny 79 26.1 54 12.2 42 42 VRB 3 6 29.82 1010 10 16.0934 0 0
9:51 am 09:51 Sunny 83 28.3 54 12.2 37 37 W 6 9 29.82 1010 10 16.0934 0 0
10:51 am 10:51 undefined N/A N/A N/A undefined N/A N/A N/A 0 0
11:51 am 11:51 undefined N/A N/A N/A undefined N/A N/A N/A 0 0
12:51 pm 12:51 undefined N/A N/A N/A undefined N/A N/A N/A 0 0
1:51 pm 13:51 Sunny 92 33.3 50 10 24 24 SE 6 9 29.73 1007 10 16.0934 0 0
2:51 pm 14:51 Sunny 94 34.4 49 9.4 21 21 WSW 3 6 29.7 1006 10 16.0934 0 0
3:51 pm 15:51 Sunny 95 35 50 10 22 22 W 13 20 29.68 1005 10 16.0934 0 0
4:51 pm 16:51 Mostly Sunny 92 33.3 50 10 24 24 W 9 15 29.69 1005 10 16.0934 0 0
5:51 pm 17:51 Mostly Sunny 89 31.7 51 10.6 27 27 W 9 15 29.7 1006 10 16.0934 0 0
6:51 pm 18:51 Clear 84 28.9 55 12.8 37 37 NNW 15 24 29.71 1006 10 16.0934 0 0
7:51 pm 19:51 Clear 84 28.9 53 11.7 34 34 NNW 9 15 29.72 1006 10 16.0934 0 0
8:51 pm 20:51 Clear 81 27.2 55 12.8 41 41 WNW 8 13 29.74 1007 10 16.0934 0 0
9:51 pm 21:51 Clear 79 26.1 54 12.2 42 42 NW 8 13 29.74 1007 10 16.0934 0 0
10:51 pm 22:51 Clear 80 26.7 54 12.2 41 41 NNW 6 9 29.71 1006 10 16.0934 0 0
11:51 pm 23:51 Partly Cloudy 76 24.4 56 13.3 50 50 WSW 5 7 29.8 1009 10 16.0934 0 0

Powered by AerisWeather